Prudentia — PB4900 — position and weather

sailwx.info

Track history (hours):
 
Tides and Currents Weather Stations Pressure Air Temp Water Temp Dewpoint Dewpoint Depression Visibility Wind Speed Wind Dir Waves Ship Positions

Prudentia

Last reported at 2014-Sep-05 20:10 UTC. Time now 2014-Sep-23 00:24 UTC.
Position N 51°51' E 005°51'.
Warning: this ship's position is 17 days out of date.

Length 70 m; draft 1.8 m.

Type: Ship. MMSI: 244660779.

Date/timePositionNaut miles runAvg speedWind from/ knotsBaromVisibWave heightAir tempDewpointWater temp
2014-Sep-05 20:10N 51°51' E 005°51'7 3.5
2014-Sep-05 18:16N 51°56' E 005°58'12 4.1
2014-Sep-05 15:14N 52°06' E 006°12'4 4.1
2014-Sep-05 14:13N 52°10' E 006°11'2 2.9
2014-Sep-05 13:33N 52°10' E 006°14'6 6.2
2014-Sep-05 12:33N 52°10' E 006°24'0 0.0
2014-Sep-05 11:33N 52°10' E 006°24'0 0.0
2014-Sep-05 10:32N 52°10' E 006°24'0 0.0
2014-Sep-05 09:32N 52°10' E 006°24'0 0.0
2014-Sep-05 08:33N 52°10' E 006°24'0 0.0
2014-Sep-05 07:33N 52°10' E 006°24'0 0.3
2014-Sep-05 06:32N 52°10' E 006°24'0 0.0
2014-Sep-05 05:32N 52°10' E 006°24'0 0.0
2014-Sep-05 04:33N 52°10' E 006°24'0 0.0
2014-Sep-05 03:33N 52°10' E 006°24'0 0.0
2014-Sep-05 02:32N 52°10' E 006°24'0 0.0
2014-Sep-05 01:32N 52°10' E 006°24'0 0.0
2014-Sep-05 00:33N 52°10' E 006°24'0 0.0
2014-Sep-04 23:33N 52°10' E 006°24'0 0.0
2014-Sep-04 22:33N 52°10' E 006°24'0 0.0
2014-Sep-04 21:32N 52°10' E 006°24'0 0.0
2014-Sep-04 20:33N 52°10' E 006°24'0 0.0
2014-Sep-04 19:33N 52°10' E 006°24'0 0.0
2014-Sep-04 18:33N 52°10' E 006°24'0 0.0
2014-Sep-04 17:32N 52°10' E 006°24'0 0.0
2014-Sep-04 16:33N 52°10' E 006°24'0 0.0
2014-Sep-04 15:33N 52°10' E 006°24'0 0.0
2014-Sep-04 14:32N 52°10' E 006°24'0 0.0
2014-Sep-04 13:32N 52°10' E 006°24'0 0.0
2014-Sep-04 12:33N 52°10' E 006°24'0 0.0
2014-Sep-04 11:33N 52°10' E 006°24'0 0.0
2014-Sep-04 10:32N 52°10' E 006°24'0 0.0
2014-Sep-04 09:32N 52°10' E 006°24'0 0.0
2014-Sep-04 08:33N 52°10' E 006°24'0 0.0
2014-Sep-04 07:33N 52°10' E 006°24'0 0.0
2014-Sep-04 06:34N 52°10' E 006°24'0 0.0
2014-Sep-04 05:32N 52°10' E 006°24'0 0.0
2014-Sep-04 04:33N 52°10' E 006°24'0 0.0
2014-Sep-04 03:33N 52°10' E 006°24'0 0.0
2014-Sep-04 02:33N 52°10' E 006°24'0 0.0
2014-Sep-04 01:32N 52°10' E 006°24'0 0.0
2014-Sep-04 00:32N 52°10' E 006°24'0 0.0
2014-Sep-03 23:33N 52°10' E 006°24'0 0.0
2014-Sep-03 22:33N 52°10' E 006°24'0 0.0
2014-Sep-03 21:33N 52°10' E 006°24'0 0.0
2014-Sep-03 20:32N 52°10' E 006°24'0 0.0
2014-Sep-03 19:32N 52°10' E 006°24'0 0.0
2014-Sep-03 18:33N 52°10' E 006°24'0 0.0
2014-Sep-03 17:33N 52°10' E 006°24'0 0.0
2014-Sep-03 16:33N 52°10' E 006°24'0 0.0
2014-Sep-03 15:32N 52°10' E 006°24'0 0.0
2014-Sep-03 14:33N 52°10' E 006°24'0 0.0
2014-Sep-03 13:33N 52°10' E 006°24'0 0.0
2014-Sep-03 12:33N 52°10' E 006°24'0 0.0
2014-Sep-03 11:32N 52°10' E 006°24'0 0.0
2014-Sep-03 10:33N 52°10' E 006°24'0 0.0
2014-Sep-03 09:33N 52°10' E 006°24'0 0.0
2014-Sep-03 08:33N 52°10' E 006°24'0 0.0
2014-Sep-03 07:32N 52°10' E 006°24'0 0.0
2014-Sep-03 06:33N 52°10' E 006°24'0 0.0
2014-Sep-03 05:33N 52°10' E 006°24'0 0.0
2014-Sep-03 04:33N 52°10' E 006°24'0 0.0
2014-Sep-03 03:32N 52°10' E 006°24'0 0.0
2014-Sep-03 02:33N 52°10' E 006°24'0 0.0
2014-Sep-03 01:33N 52°10' E 006°24'0 0.0
2014-Sep-03 00:33N 52°10' E 006°24'0 0.0
2014-Sep-02 23:32N 52°10' E 006°24'0 0.0
2014-Sep-02 22:33N 52°10' E 006°24'0 0.0
2014-Sep-02 21:33N 52°10' E 006°24'0 0.0
2014-Sep-02 20:33N 52°10' E 006°24'0 0.0
2014-Sep-02 19:32N 52°10' E 006°24'0 0.0
2014-Sep-02 18:32N 52°10' E 006°24'0 0.0
2014-Sep-02 17:33N 52°10' E 006°24'0 0.0
2014-Sep-02 16:33N 52°10' E 006°24'0 0.0
2014-Sep-02 15:32N 52°10' E 006°24'0 0.0
2014-Sep-02 14:33N 52°10' E 006°24'0 0.0
2014-Sep-02 13:33N 52°10' E 006°24'0 0.0
2014-Sep-02 12:33N 52°10' E 006°24'0 0.0
2014-Sep-02 11:32N 52°10' E 006°24'3 3.3
2014-Sep-02 10:32N 52°10' E 006°19'20 3.3
2014-Sep-02 04:27N 51°51' E 006°07'2 2.5
2014-Sep-02 03:33N 51°50' E 006°10'0 0.0
2014-Sep-02 02:34N 51°50' E 006°10'0 0.0
2014-Sep-02 01:33N 51°50' E 006°10'0 0.0
2014-Sep-02 00:33N 51°50' E 006°10'0 0.0
2014-Sep-01 23:32N 51°50' E 006°10'12 0.7
2014-Sep-01 06:32N 51°51' E 005°51'  
Track history (hours):
 
Tides and Currents Weather Stations Pressure Air Temp Water Temp Dewpoint Dewpoint Depression Visibility Wind Speed Wind Dir Waves Ship Positions

Prudentia

Last reported at 2014-Sep-05 20:10 UTC. Time now 2014-Sep-23 00:24 UTC.
Position N 51°51' E 005°51'.
Warning: this ship's position is 17 days out of date.

Length 70 m; draft 1.8 m.

Type: Ship. MMSI: 244660779.

Date/timePositionNaut miles runAvg speedWind from/ knotsBaromVisibWave heightAir tempDewpointWater temp
2014-Sep-05 20:10N 51°51' E 005°51'7 3.5
2014-Sep-05 18:16N 51°56' E 005°58'12 4.1
2014-Sep-05 15:14N 52°06' E 006°12'4 4.1
2014-Sep-05 14:13N 52°10' E 006°11'2 2.9
2014-Sep-05 13:33N 52°10' E 006°14'6 6.2
2014-Sep-05 12:33N 52°10' E 006°24'0 0.0
2014-Sep-05 11:33N 52°10' E 006°24'0 0.0
2014-Sep-05 10:32N 52°10' E 006°24'0 0.0
2014-Sep-05 09:32N 52°10' E 006°24'0 0.0
2014-Sep-05 08:33N 52°10' E 006°24'0 0.0
2014-Sep-05 07:33N 52°10' E 006°24'0 0.3
2014-Sep-05 06:32N 52°10' E 006°24'0 0.0
2014-Sep-05 05:32N 52°10' E 006°24'0 0.0
2014-Sep-05 04:33N 52°10' E 006°24'0 0.0
2014-Sep-05 03:33N 52°10' E 006°24'0 0.0
2014-Sep-05 02:32N 52°10' E 006°24'0 0.0
2014-Sep-05 01:32N 52°10' E 006°24'0 0.0
2014-Sep-05 00:33N 52°10' E 006°24'0 0.0
2014-Sep-04 23:33N 52°10' E 006°24'0 0.0
2014-Sep-04 22:33N 52°10' E 006°24'0 0.0
2014-Sep-04 21:32N 52°10' E 006°24'0 0.0
2014-Sep-04 20:33N 52°10' E 006°24'0 0.0
2014-Sep-04 19:33N 52°10' E 006°24'0 0.0
2014-Sep-04 18:33N 52°10' E 006°24'0 0.0
2014-Sep-04 17:32N 52°10' E 006°24'0 0.0
2014-Sep-04 16:33N 52°10' E 006°24'0 0.0
2014-Sep-04 15:33N 52°10' E 006°24'0 0.0
2014-Sep-04 14:32N 52°10' E 006°24'0 0.0
2014-Sep-04 13:32N 52°10' E 006°24'0 0.0
2014-Sep-04 12:33N 52°10' E 006°24'0 0.0
2014-Sep-04 11:33N 52°10' E 006°24'0 0.0
2014-Sep-04 10:32N 52°10' E 006°24'0 0.0
2014-Sep-04 09:32N 52°10' E 006°24'0 0.0
2014-Sep-04 08:33N 52°10' E 006°24'0 0.0
2014-Sep-04 07:33N 52°10' E 006°24'0 0.0
2014-Sep-04 06:34N 52°10' E 006°24'0 0.0
2014-Sep-04 05:32N 52°10' E 006°24'0 0.0
2014-Sep-04 04:33N 52°10' E 006°24'0 0.0
2014-Sep-04 03:33N 52°10' E 006°24'0 0.0
2014-Sep-04 02:33N 52°10' E 006°24'0 0.0
2014-Sep-04 01:32N 52°10' E 006°24'0 0.0
2014-Sep-04 00:32N 52°10' E 006°24'0 0.0
2014-Sep-03 23:33N 52°10' E 006°24'0 0.0
2014-Sep-03 22:33N 52°10' E 006°24'0 0.0
2014-Sep-03 21:33N 52°10' E 006°24'0 0.0
2014-Sep-03 20:32N 52°10' E 006°24'0 0.0
2014-Sep-03 19:32N 52°10' E 006°24'0 0.0
2014-Sep-03 18:33N 52°10' E 006°24'0 0.0
2014-Sep-03 17:33N 52°10' E 006°24'0 0.0
2014-Sep-03 16:33N 52°10' E 006°24'0 0.0
2014-Sep-03 15:32N 52°10' E 006°24'0 0.0
2014-Sep-03 14:33N 52°10' E 006°24'0 0.0
2014-Sep-03 13:33N 52°10' E 006°24'0 0.0
2014-Sep-03 12:33N 52°10' E 006°24'0 0.0
2014-Sep-03 11:32N 52°10' E 006°24'0 0.0
2014-Sep-03 10:33N 52°10' E 006°24'0 0.0
2014-Sep-03 09:33N 52°10' E 006°24'0 0.0
2014-Sep-03 08:33N 52°10' E 006°24'0 0.0
2014-Sep-03 07:32N 52°10' E 006°24'0 0.0
2014-Sep-03 06:33N 52°10' E 006°24'0 0.0
2014-Sep-03 05:33N 52°10' E 006°24'0 0.0
2014-Sep-03 04:33N 52°10' E 006°24'0 0.0
2014-Sep-03 03:32N 52°10' E 006°24'0 0.0
2014-Sep-03 02:33N 52°10' E 006°24'0 0.0
2014-Sep-03 01:33N 52°10' E 006°24'0 0.0
2014-Sep-03 00:33N 52°10' E 006°24'0 0.0
2014-Sep-02 23:32N 52°10' E 006°24'0 0.0
2014-Sep-02 22:33N 52°10' E 006°24'0 0.0
2014-Sep-02 21:33N 52°10' E 006°24'0 0.0
2014-Sep-02 20:33N 52°10' E 006°24'0 0.0
2014-Sep-02 19:32N 52°10' E 006°24'0 0.0
2014-Sep-02 18:32N 52°10' E 006°24'0 0.0
2014-Sep-02 17:33N 52°10' E 006°24'0 0.0
2014-Sep-02 16:33N 52°10' E 006°24'0 0.0
2014-Sep-02 15:32N 52°10' E 006°24'0 0.0
2014-Sep-02 14:33N 52°10' E 006°24'0 0.0
2014-Sep-02 13:33N 52°10' E 006°24'0 0.0
2014-Sep-02 12:33N 52°10' E 006°24'0 0.0
2014-Sep-02 11:32N 52°10' E 006°24'3 3.3
2014-Sep-02 10:32N 52°10' E 006°19'20 3.3
2014-Sep-02 04:27N 51°51' E 006°07'2 2.5
2014-Sep-02 03:33N 51°50' E 006°10'0 0.0
2014-Sep-02 02:34N 51°50' E 006°10'0 0.0
2014-Sep-02 01:33N 51°50' E 006°10'0 0.0
2014-Sep-02 00:33N 51°50' E 006°10'0 0.0
2014-Sep-01 23:32N 51°50' E 006°10'12 0.7
2014-Sep-01 06:32N 51°51' E 005°51'  

Dump ship's entire track history